Nearby METAR Reports

 

KDVT - Phoenix/Deer Vly, Arizona, USA
Distance from station: SSE 14mi, 22km
Updated: 12/11/2019 7:53pm
Clear
Clear
 Wind from calm
Wind: Calm
Temperature: 55°F , 13°C
Dew Point: 45°F , 7°C
Humidity: 67%
Barometer: 30.13 inHg , 1020.3 hPa
Clouds: Clear
Visibility: 10 miles , 16 km
2019/12/12 02:53 KDVT 120253Z 00000KT 10SM CLR 13/07 A3013 RMK AO2 SLP196 T01330067 53011
KSDL - Scottsdale, Arizona, USA
Distance from station: SE 22mi, 35km
Updated: 12/11/2019 7:53pm
Clear
Clear
 Wind from calm
Wind: Calm
Temperature: 57°F , 14°C
Dew Point: 43°F , 6°C
Humidity: 59%
Barometer: 30.12 inHg , 1020 hPa
Clouds: Clear
Visibility: 10 miles , 16 km
2019/12/12 02:53 KSDL 120253Z 00000KT 10SM CLR 14/06 A3012 RMK AO2 SLP193 T01390061 56007
 
KGEU - Glendale, Arizona, USA
Distance from station: SSW 25mi, 41km
Updated: 12/11/2019 7:58pm
Partly cloudy
Partly cloudy
 Wind from calm
Wind: Calm
Temperature: 57°F , 14°C
Dew Point: 45°F , 7°C
Humidity: 63%
Barometer: 30.14 inHg , 1020.7 hPa
Clouds: Partly cloudy
Visibility: 10 miles , 16 km
Cloud details: Partly cloudy 25000 ft
2019/12/12 02:58 KGEU 120258Z 00000KT 10SM SCT250 14/07 A3014 RMK LAST
KLUF - Luke Afb/Glendal, Arizona, USA
Distance from station: SSW 28mi, 45km
Updated: 12/11/2019 7:58pm
Clear
Clear
 Wind from calm
Wind: Calm
Temperature: 54°F , 12°C
Dew Point: 48°F , 9°C
Humidity: 82%
Barometer: 30.11 inHg , 1019.6 hPa
Clouds: Clear
Visibility: 10 miles , 16 km
2019/12/12 02:58 KLUF 120258Z AUTO 00000KT 10SM CLR 12/09 A3011 RMK AO2 SLP196 T01230088 52009
 
KPHX - Phoenix/Sky Hrbr, Arizona, USA
Distance from station: SSE 31mi, 51km
Updated: 12/11/2019 7:51pm
Mostly cloudy
Mostly cloudy
 Wind from WSW
Wind: WSW 3 mph , 6 km/h
Temperature: 59°F , 15°C
Dew Point: 45°F , 7°C
Humidity: 59%
Barometer: 30.11 inHg , 1019.6 hPa
Clouds: Mostly cloudy
Visibility: 10 miles , 16 km
Cloud details: Mostly cloudy 25000 ft
2019/12/12 02:51 KPHX 120251Z 24003KT 10SM BKN250 15/07 A3011 RMK AO2 SLP191 T01500067 53010
KGYR - Goodyear Municip, Arizona, USA
Distance from station: SSW 34mi, 55km
Updated: 12/11/2019 8:47pm
Partly cloudy
Partly cloudy
 Wind from calm
Wind: Calm
Temperature: 55°F , 13°C
Dew Point: 45°F , 7°C
Humidity: 67%
Barometer: 30.14 inHg , 1020.7 hPa
Clouds: Partly cloudy
Visibility: 10 miles , 16 km
Cloud details: Partly cloudy 20000 ft
2019/12/12 03:47 KGYR 120347Z 00000KT 10SM SCT200 13/07 A3014 RMK LAST
 
KFFZ - Mesa/Falcon Fld, Arizona, USA
Distance from station: SE 37mi, 60km
Updated: 12/11/2019 7:54pm
Clear
Clear
 Wind from calm
Wind: Calm
Temperature: 57°F , 14°C
Dew Point: 45°F , 7°C
Humidity: 63%
Barometer: 30.13 inHg , 1020.3 hPa
Clouds: Clear
Visibility: 10 miles , 16 km
2019/12/12 02:54 KFFZ 120254Z AUTO 00000KT 10SM CLR 14/07 A3013 RMK AO2 SLP193 T01390072 53012
KBXK - Buckeye, Arizona, USA
Distance from station: SW 45mi, 72km
Updated: 12/11/2019 8:35pm
Clear
Clear
 Wind from NNW
Wind: NNW 8 mph , 13 km/h
Temperature: 52°F , 11°C
Dew Point: 48°F , 9°C
Humidity: 88%
Barometer: 30.14 inHg , 1020.7 hPa
Clouds: Clear
Visibility: 10 miles , 16 km
2019/12/12 03:35 KBXK 120335Z AUTO 34007KT 10SM CLR 11/09 A3014 RMK A01
 
KIWA - Chandler/Mesa, Arizona, USA
Distance from station: SE 49mi, 78km
Updated: 12/11/2019 7:47pm
Few Clouds
Few Clouds
 Wind from calm
Wind: Calm
Temperature: 57°F , 14°C
Dew Point: 45°F , 7°C
Humidity: 63%
Barometer: 30.15 inHg , 1021 hPa
Clouds: Few Clouds
Visibility: 10 miles , 16 km
Cloud details: Few Clouds 20000 ft
2019/12/12 02:47 KIWA 120247Z 00000KT 10SM FEW200 14/07 A3015
KPAN - Payson, Arizona, USA
Distance from station: ENE 53mi, 85km
Updated: 12/11/2019 8:35pm
Clear
Clear
 Wind from calm
Wind: Calm
Temperature: 41°F , 5°C
Dew Point: 30°F , -1°C
Humidity: 66%
Barometer: 30.23 inHg , 1023.7 hPa
Clouds: Clear
Visibility: 10 miles , 16 km
2019/12/12 03:35 KPAN 120335Z AUTO 00000KT 10SM CLR 05/M01 A3023 RMK AO2
 
KPRC - Prescott, Arizona, USA
Distance from station: NNW 56mi, 90km
Updated: 12/11/2019 7:53pm
Clear
Clear
 Wind from calm
Wind: Calm
Temperature: 39°F , 4°C
Dew Point: 28°F , -2°C
Humidity: 65%
Barometer: 30.21 inHg , 1023 hPa
Clouds: Clear
Visibility: 10 miles , 16 km
2019/12/12 02:53 KPRC 120253Z 00000KT 10SM CLR 04/M02 A3021 RMK AO2 SLP222 T00391022 51010
KCGZ - Casa Granda, Arizona, USA
Distance from station: SSE 67mi, 109km
Updated: 12/11/2019 7:56pm
Clear
Clear
 Wind from NW
Wind: NW 3 mph , 6 km/h
Temperature: 52°F , 11°C
Dew Point: 45°F , 7°C
Humidity: 77%
Barometer: 30.15 inHg , 1021 hPa
Clouds: Clear
Visibility: 10 miles , 16 km
2019/12/12 02:56 KCGZ 120256Z AUTO 31003KT 10SM CLR 11/07 A3015 RMK AO2 SLP213 6//// T01060072 53011
 
KSEZ - Sedona, Arizona, USA
Distance from station: NNE 70mi, 113km
Updated: 12/11/2019 8:35pm
Clear
Clear
 Wind from NE
Wind: NE 3 mph , 6 km/h
Temperature: 45°F , 7°C
Dew Point: 32°F , 0°C
Humidity: 61%
Barometer: 30.21 inHg , 1023 hPa
Clouds: Clear
Visibility: 10 miles , 16 km
2019/12/12 03:35 KSEZ 120335Z AUTO 04003KT 10SM CLR 07/00 A3021 RMK AO2
KGXF - Gila Bend (aaf), Arizona, USA
Distance from station: SSW 77mi, 124km
Updated: 12/11/2019 7:58pm
Few Clouds
Few Clouds
 Wind from S
Wind: S 2 mph , 4 km/h
Temperature: 52°F , 11°C
Dew Point: 46°F , 8°C
Humidity: 82%
Barometer: 30.12 inHg , 1020 hPa
Clouds: Few Clouds
Visibility: 10 miles , 16 km
Cloud details: Few Clouds 25000 ft
2019/12/12 02:58 KGXF 120258Z 17002KT 10SM FEW250 11/08 A3012 RMK AO2A WND DATA ESTMD SLP199 T01090080 52011
 
KP08 - Coolidge Muni, Arizona, USA
Distance from station: SSE 77mi, 124km
Updated: 12/11/2019 8:35pm

 
2019/12/12 03:35 KP08 120335Z AUTO RMK AO2 PNO PWINO TSNO
KFLG - Flagstaff, Arizona, USA
Distance from station: NNE 91mi, 146km
Updated: 12/11/2019 7:57pm
Clear
Clear
 Wind from SSW
Wind: SSW 6 mph , 9 km/h
Temperature: 28°F , -2°C
Wind Chill: 21°F , -6°C
Dew Point: 23°F , -5°C
Humidity: 80%
Barometer: 30.22 inHg , 1023.4 hPa
Clouds: Clear
Visibility: 10 miles , 16 km
2019/12/12 02:57 KFLG 120257Z AUTO 21005KT 10SM CLR M02/M05 A3022 RMK AO2 SLP252 T10171050 50005
 
KCMR - Williams Clark, Arizona, USA
Distance from station: N 98mi, 158km
Updated: 12/11/2019 8:35pm
Clear
Clear
 Wind from SSE
Wind: SSE 8 mph , 13 km/h
Temperature: 28°F , -2°C
Wind Chill: 20°F , -7°C
Dew Point: 21°F , -6°C
Humidity: 74%
Barometer: 30.25 inHg , 1024.4 hPa
Clouds: Clear
Visibility: 10 miles , 16 km
2019/12/12 03:35 KCMR 120335Z AUTO 16007KT 10SM CLR M02/M06 A3025 RMK AO2 PWINO